Time;durP1;ratioP1;P1;durP2;ratioP2;P2;SDS_P1;SDS_P2;PMS_P1;PMS_P2;Temp;Humidity;BMP_temperature;BMP_pressure;BME280_temperature;BME280_humidity;BME280_pressure;Samples;Min_cycle;Max_cycle;Signal;HPM_P1;HPM_P2
2022/11/02 00:02:15;;;;;;;15.70;3.00;;;;;;;11.74;82.72;101278.91;5068354;28;20112;-70
2022/11/02 00:04:40;;;;;;;18.85;3.38;;;;;;;11.81;82.74;101285.44;5067304;28;20115;-70
2022/11/02 00:07:06;;;;;;;11.77;2.58;;;;;;;12.02;81.59;101276.97;5067879;28;20020;-71
2022/11/02 00:09:31;;;;;;;17.23;2.95;;;;;;;11.95;81.84;101282.16;5071004;28;20446;-70
2022/11/02 00:11:56;;;;;;;16.08;3.15;;;;;;;12.00;81.92;101273.53;5070758;28;20027;-70
2022/11/02 00:14:22;;;;;;;18.95;3.22;;;;;;;12.18;81.11;101271.63;5071763;28;20093;-70
2022/11/02 00:16:47;;;;;;;17.48;2.95;;;;;;;12.02;81.95;101261.53;5071610;28;20061;-70
2022/11/02 00:19:13;;;;;;;15.73;2.70;;;;;;;12.17;81.35;101257.22;5071471;28;20024;-70
2022/11/02 00:21:39;;;;;;;23.30;3.65;;;;;;;12.25;80.90;101256.41;5072276;28;20032;-70
2022/11/02 00:24:06;;;;;;;12.98;2.90;;;;;;;12.22;80.79;101257.59;5071322;28;20042;-71
2022/11/02 00:26:34;;;;;;;10.77;3.03;;;;;;;12.36;80.53;101253.44;5071448;28;20435;-71
2022/11/02 00:28:59;;;;;;;11.77;2.75;;;;;;;12.14;81.27;101254.84;5071130;28;20036;-70
2022/11/02 00:31:24;;;;;;;18.52;3.83;;;;;;;12.26;81.02;101259.97;5071826;28;20349;-68
2022/11/02 00:33:50;;;;;;;15.20;3.42;;;;;;;12.07;81.57;101248.34;5070855;28;20145;-70
2022/11/02 00:36:16;;;;;;;16.75;3.08;;;;;;;12.09;81.52;101251.72;5072418;28;20021;-71
2022/11/02 00:38:41;;;;;;;19.98;3.22;;;;;;;12.12;81.23;101245.97;5071133;28;20024;-70
2022/11/02 00:41:06;;;;;;;18.10;2.80;;;;;;;12.25;81.26;101250.13;5072442;28;20021;-71
2022/11/02 00:43:32;;;;;;;16.33;2.80;;;;;;;12.50;80.08;101243.84;5071043;28;20039;-71
2022/11/02 00:45:57;;;;;;;15.50;2.42;;;;;;;12.18;81.09;101239.91;5070834;28;20082;-71
2022/11/02 00:48:22;;;;;;;23.60;4.13;;;;;;;12.11;81.58;101238.84;5071187;28;20032;-70
2022/11/02 00:50:48;;;;;;;19.30;3.63;;;;;;;12.13;81.29;101236.84;5070759;28;20025;-69
2022/11/02 00:53:13;;;;;;;18.38;3.45;;;;;;;12.14;81.46;101233.13;5071110;28;20028;-70
2022/11/02 00:55:38;;;;;;;24.50;4.07;;;;;;;12.14;81.62;101238.53;5070715;28;20024;-71
2022/11/02 00:58:04;;;;;;;16.10;2.83;;;;;;;12.10;81.56;101226.28;5071788;28;20111;-70
2022/11/02 01:00:29;;;;;;;23.73;3.47;;;;;;;12.11;81.82;101217.13;5070166;28;20043;-70
2022/11/02 01:02:59;;;;;;;22.65;3.60;;;;;;;12.10;82.02;101226.28;5071384;28;20032;-70
2022/11/02 01:05:24;;;;;;;18.67;3.75;;;;;;;12.15;81.54;101223.97;5070581;28;20040;-71
2022/11/02 01:07:51;;;;;;;18.05;3.10;;;;;;;12.18;81.44;101217.34;5070444;28;20028;-69
2022/11/02 01:10:16;;;;;;;14.20;2.72;;;;;;;12.28;81.60;101217.25;5070522;28;20033;-71
2022/11/02 01:12:41;;;;;;;24.35;3.15;;;;;;;12.20;81.31;101204.47;5070911;28;20025;-70
2022/11/02 01:15:09;;;;;;;16.45;3.13;;;;;;;12.35;81.08;101212.88;5071185;28;20099;-70
2022/11/02 01:17:35;;;;;;;14.02;3.05;;;;;;;12.20;81.20;101205.34;5070765;28;20056;-70
2022/11/02 01:20:00;;;;;;;22.20;3.90;;;;;;;12.21;81.36;101215.19;5070292;28;20064;-69
2022/11/02 01:22:25;;;;;;;16.02;3.33;;;;;;;12.18;81.13;101207.34;5071615;28;20420;-70
2022/11/02 01:24:51;;;;;;;18.35;2.80;;;;;;;12.22;81.35;101203.31;5070258;28;20124;-71
2022/11/02 01:27:16;;;;;;;22.40;3.05;;;;;;;12.18;81.97;101207.34;5071677;28;20115;-70
2022/11/02 01:29:41;;;;;;;18.27;3.63;;;;;;;12.15;81.97;101196.81;5070035;28;20024;-71
2022/11/02 01:32:07;;;;;;;21.90;3.13;;;;;;;12.04;82.38;101199.78;5071097;28;20029;-70
2022/11/02 01:34:32;;;;;;;18.15;3.03;;;;;;;12.07;82.58;101193.22;5070528;28;20490;-70
2022/11/02 01:36:58;;;;;;;15.90;2.45;;;;;;;12.12;82.39;101186.25;5070419;28;20027;-70
2022/11/02 01:39:23;;;;;;;19.83;3.28;;;;;;;12.07;82.62;101194.06;5071422;28;20032;-70
2022/11/02 01:41:52;;;;;;;17.80;3.35;;;;;;;12.01;82.93;101197.41;5070444;28;20024;-71
2022/11/02 01:44:29;;;;;;;15.23;3.65;;;;;;;11.97;83.16;101193.31;5068778;28;20032;-71
2022/11/02 01:47:11;;;;;;;23.13;4.13;;;;;;;11.95;83.38;101201.59;5068773;28;20124;-71
2022/11/02 01:49:40;;;;;;;15.88;2.80;;;;;;;11.88;83.66;101183.41;5069026;28;20104;-70
2022/11/02 01:52:36;;;;;;;36.78;3.25;;;;;;;11.88;83.38;101200.53;5069035;28;20021;-71
2022/11/02 01:55:19;;;;;;;14.15;2.63;;;;;;;11.91;83.40;101191.22;5059949;28;20072;-70
2022/11/02 01:57:51;;;;;;;23.23;3.47;;;;;;;11.77;83.99;101179.06;5068858;28;20413;-70
2022/11/02 02:00:17;;;;;;;13.35;2.80;;;;;;;11.78;83.78;101160.91;5069097;28;20039;-70
2022/11/02 02:03:02;;;;;;;12.57;2.72;;;;;;;11.88;83.77;101169.84;5069143;28;20032;-70
2022/11/02 02:05:29;;;;;;;21.17;2.80;;;;;;;11.76;83.78;101173.78;5070634;28;20017;-70
2022/11/02 02:07:55;;;;;;;24.08;3.53;;;;;;;11.72;84.13;101166.97;5070306;28;20562;-70
2022/11/02 02:10:21;;;;;;;19.52;3.30;;;;;;;11.80;84.04;101169.72;5070706;28;20060;-70
2022/11/02 02:12:46;;;;;;;20.45;3.45;;;;;;;11.79;83.86;101173.47;5069625;28;20032;-71
2022/11/02 02:15:12;;;;;;;21.52;2.97;;;;;;;11.84;83.66;101176.59;5069779;28;20028;-71
2022/11/02 02:17:52;;;;;;;17.15;3.00;;;;;;;11.88;83.52;101165.28;5069063;28;20024;-69
2022/11/02 02:20:51;;;;;;;28.40;3.70;;;;;;;11.99;83.09;101174.13;5068879;28;20111;-70
2022/11/02 02:23:49;;;;;;;19.10;2.78;;;;;;;11.99;83.03;101169.56;5068281;28;20033;-71
2022/11/02 02:26:40;;;;;;;23.08;4.00;;;;;;;12.08;82.97;101167.75;5070030;28;20029;-70
2022/11/02 02:29:19;;;;;;;19.00;3.10;;;;;;;11.94;83.39;101152.94;5070293;28;20029;-70
2022/11/02 02:31:59;;;;;;;21.10;3.35;;;;;;;11.93;83.46;101148.50;5068771;28;20028;-70
2022/11/02 02:34:37;;;;;;;23.58;2.67;;;;;;;11.95;82.78;101151.91;5068672;28;20028;-70
2022/11/02 02:37:08;;;;;;;15.20;3.45;;;;;;;11.87;83.60;101143.72;5069131;28;20388;-69
2022/11/02 02:39:48;;;;;;;22.77;3.30;;;;;;;12.02;82.84;101147.53;5069232;28;20052;-70
2022/11/02 02:42:20;;;;;;;10.93;2.35;;;;;;;12.11;82.31;101135.69;5069233;28;20035;-70
2022/11/02 02:45:10;;;;;;;17.80;2.85;;;;;;;11.97;82.93;101149.88;5068409;28;20024;-70
2022/11/02 02:47:46;;;;;;;23.48;2.95;;;;;;;12.07;83.11;101150.63;5068008;28;20133;-69
2022/11/02 02:50:23;;;;;;;16.15;3.15;;;;;;;12.18;82.84;101158.47;5068572;28;20020;-70
2022/11/02 02:52:51;;;;;;;23.02;2.67;;;;;;;12.10;83.26;101149.44;5069260;28;20428;-70
2022/11/02 02:55:30;;;;;;;21.67;3.88;;;;;;;12.09;83.10;101143.16;5069347;28;20025;-69
2022/11/02 02:57:58;;;;;;;19.77;3.10;;;;;;;11.99;84.39;101147.84;5068938;28;20020;-70
2022/11/02 03:00:24;;;;;;;20.20;2.80;;;;;;;12.02;83.60;101152.13;5070616;28;20028;-69
2022/11/02 03:03:02;;;;;;;15.82;3.83;;;;;;;12.01;84.40;101145.84;5067838;28;20024;-69
2022/11/02 03:05:36;;;;;;;17.73;2.85;;;;;;;12.05;83.71;101147.22;5066647;28;20017;-70
2022/11/02 03:08:07;;;;;;;21.85;2.92;;;;;;;12.01;84.11;101151.28;5069002;28;20036;-68
2022/11/02 03:10:54;;;;;;;19.85;4.03;;;;;;;12.00;84.88;101146.88;5068587;28;20044;-70
2022/11/02 03:13:38;;;;;;;21.25;3.28;;;;;;;11.87;86.64;101143.72;5068271;28;20033;-69
2022/11/02 03:16:25;;;;;;;13.25;3.05;;;;;;;11.79;86.70;101149.03;5068519;28;20032;-70
2022/11/02 03:18:58;;;;;;;15.15;2.92;;;;;;;11.81;87.28;101133.50;5069867;28;20132;-70
2022/11/02 03:21:49;;;;;;;19.70;3.63;;;;;;;11.95;86.51;101141.06;5068555;28;20362;-69
2022/11/02 03:24:53;;;;;;;29.20;4.15;;;;;;;11.69;87.96;101141.88;4948393;29;20039;-80
2022/11/02 03:27:29;;;;;;;20.45;3.70;;;;;;;11.50;89.81;101142.06;4914649;29;20134;-79
2022/11/02 03:30:04;;;;;;;21.38;3.28;;;;;;;11.44;91.69;101137.28;4932874;29;20027;-79
2022/11/02 03:32:39;;;;;;;17.77;3.78;;;;;;;11.42;90.71;101136.59;4935223;29;20023;-79
2022/11/02 03:35:13;;;;;;;15.88;2.72;;;;;;;11.41;91.66;101129.47;4935490;29;20077;-81
2022/11/02 03:38:10;;;;;;;;;;;;;;;;;;;;;
2022/11/02 03:41:04;;;;;;;20.90;3.00;;;;;;;11.18;93.35;101125.53;4952096;28;20050;-79
2022/11/02 03:43:58;;;;;;;20.58;3.53;;;;;;;11.24;93.75;101124.91;4943921;29;20027;-77
2022/11/02 03:47:03;;;;;;;18.65;3.45;;;;;;;11.25;93.39;101132.03;4944864;29;20027;-79
2022/11/02 03:49:49;;;;;;;30.85;3.30;;;;;;;11.23;93.94;101144.91;4941977;29;20047;-81
2022/11/02 03:53:10;;;;;;;;;;;;;;;;;;;;;
2022/11/02 03:55:57;;;;;;;;;;;;;;;;;;;;;
2022/11/02 04:01:40;;;;;;;15.57;2.85;;;;;;;11.23;92.83;101124.06;4946331;29;20024;-80
2022/11/02 04:04:46;;;;;;;20.55;3.25;;;;;;;11.12;93.41;101144.13;4854774;29;20033;-80
2022/11/02 04:08:19;;;;;;;14.32;2.72;;;;;;;11.20;93.78;101146.03;4884965;29;20037;-81
2022/11/02 04:10:25;;;;;;;19.10;3.28;;;;;;;11.29;92.99;101144.28;4943300;29;20099;-80
2022/11/02 04:16:24;;;;;;;15.65;2.90;;;;;;;11.18;93.46;101142.66;4947640;29;20023;-79
2022/11/02 04:19:28;;;;;;;14.32;2.75;;;;;;;11.28;93.53;101137.13;4921643;29;20039;-78
2022/11/02 04:25:18;;;;;;;;;;;;;;;11.35;93.87;101143.66;4872591;29;20033;-78
2022/11/02 04:28:12;;;;;;;15.82;3.35;;;;;;;11.18;93.61;101152.63;4862442;29;20018;-78
2022/11/02 04:31:13;;;;;;;21.77;2.88;;;;;;;11.28;93.93;101158.81;4858749;29;20101;-78
2022/11/02 04:36:47;;;;;;;18.92;3.08;;;;;;;11.29;93.53;101149.69;4858113;29;20026;-82
2022/11/02 04:39:22;;;;;;;22.38;3.40;;;;;;;11.28;93.49;101153.38;4898036;28;20041;-78
2022/11/02 04:42:23;;;;;;;17.42;3.20;;;;;;;11.39;92.36;101145.03;4938439;29;20053;-78
2022/11/02 04:45:36;;;;;;;;;;;;;;;;;;;;;
2022/11/02 04:48:23;;;;;;;;;;;;;;;11.41;91.74;101143.88;4955235;28;20042;-79
2022/11/02 04:51:43;;;;;;;;;;;;;;;;;;;;;
2022/11/02 04:58:14;;;;;;;;;;;;;;;;;;;;;
2022/11/02 05:01:18;;;;;;;18.25;3.33;;;;;;;11.30;92.77;101146.81;4954873;28;20030;-79
2022/11/02 05:03:55;;;;;;;22.05;2.85;;;;;;;11.23;92.76;101142.19;4989236;23;20074;-72
2022/11/02 05:06:22;;;;;;;19.90;3.17;;;;;;;11.29;92.71;101138.84;4991334;28;20045;-72
2022/11/02 05:08:48;;;;;;;23.27;3.42;;;;;;;11.27;92.96;101140.84;4990169;28;20026;-72
2022/11/02 05:11:13;;;;;;;17.50;3.05;;;;;;;11.21;92.68;101144.19;4990269;28;20034;-72
2022/11/02 05:13:40;;;;;;;27.65;3.50;;;;;;;11.32;92.12;101149.38;4991753;28;20121;-73
2022/11/02 05:16:11;;;;;;;22.63;4.00;;;;;;;11.32;92.25;101139.38;4989882;28;20026;-72
2022/11/02 05:18:36;;;;;;;25.88;4.30;;;;;;;11.29;92.46;101138.84;5005933;28;20031;-73
2022/11/02 05:21:02;;;;;;;24.98;3.97;;;;;;;11.21;92.97;101146.91;4976400;28;20116;-73
2022/11/02 05:23:28;;;;;;;21.05;3.60;;;;;;;11.32;92.75;101149.38;4970720;28;20031;-73
2022/11/02 05:26:05;;;;;;;21.80;3.67;;;;;;;11.35;92.73;101154.50;4990587;28;20018;-73
2022/11/02 05:28:31;;;;;;;19.65;3.33;;;;;;;11.26;93.46;101141.88;4954125;28;20022;-73
2022/11/02 05:31:00;;;;;;;23.25;3.97;;;;;;;11.20;92.96;101147.91;4973633;28;20018;-73
2022/11/02 05:33:28;;;;;;;10.68;2.58;;;;;;;11.14;93.33;101152.94;4954638;28;20026;-73
2022/11/02 05:35:55;;;;;;;22.65;4.35;;;;;;;11.17;93.40;101150.94;4954108;28;20027;-73
2022/11/02 05:38:21;;;;;;;14.10;2.90;;;;;;;11.17;93.93;101151.78;4954030;28;20030;-73
2022/11/02 05:40:58;;;;;;;26.27;3.63;;;;;;;11.18;93.94;101147.22;4971272;28;20113;-73
2022/11/02 05:43:24;;;;;;;19.90;4.38;;;;;;;11.13;94.13;101140.41;4954078;28;20026;-73
2022/11/02 05:45:59;;;;;;;18.17;3.42;;;;;;;11.08;94.40;101148.16;4971547;28;20487;-72
2022/11/02 05:48:26;;;;;;;20.38;4.40;;;;;;;11.14;93.83;101150.22;4986307;28;20073;-73
2022/11/02 05:51:00;;;;;;;19.25;3.50;;;;;;;11.04;93.91;101144.06;4954165;28;20042;-73
2022/11/02 05:53:26;;;;;;;26.73;3.55;;;;;;;11.07;94.88;101157.28;4961674;28;20022;-73
2022/11/02 05:55:56;;;;;;;29.95;3.78;;;;;;;11.04;94.39;101146.75;4972654;28;20018;-73
2022/11/02 05:58:21;;;;;;;18.17;3.35;;;;;;;11.04;94.42;101151.31;4990824;28;20030;-73
2022/11/02 06:00:47;;;;;;;19.85;3.85;;;;;;;10.89;95.32;101142.88;4972910;28;20165;-73
2022/11/02 06:03:12;;;;;;;24.42;3.58;;;;;;;10.95;94.67;101142.25;4972891;28;20053;-73
2022/11/02 06:05:37;;;;;;;27.20;3.97;;;;;;;10.97;95.02;101142.97;4988841;28;20049;-73
2022/11/02 06:08:03;;;;;;;16.98;3.15;;;;;;;10.95;94.88;101154.94;4972594;28;20045;-73
2022/11/02 06:10:29;;;;;;;19.15;2.95;;;;;;;10.95;95.41;101147.66;4972816;28;20022;-73
2022/11/02 06:12:56;;;;;;;23.80;3.70;;;;;;;10.98;94.82;101152.78;4990527;28;20037;-73
2022/11/02 06:15:22;;;;;;;21.63;3.42;;;;;;;10.95;94.92;101144.94;4973166;28;20033;-71
2022/11/02 06:17:47;;;;;;;20.60;4.22;;;;;;;10.93;95.62;101149.69;4972764;28;20026;-73
2022/11/02 06:20:14;;;;;;;20.17;3.50;;;;;;;11.14;94.35;101149.38;4973224;28;20117;-72
2022/11/02 06:22:41;;;;;;;20.58;4.03;;;;;;;11.18;94.10;101141.81;4973618;28;20093;-73
2022/11/02 06:25:06;;;;;;;23.23;3.53;;;;;;;11.09;94.56;101149.88;4988098;28;20076;-73
2022/11/02 06:27:32;;;;;;;31.45;4.32;;;;;;;11.22;93.94;101148.63;4990059;28;20026;-73
2022/11/02 06:29:57;;;;;;;31.63;4.40;;;;;;;11.19;94.36;101159.75;4973236;28;20031;-73
2022/11/02 06:32:23;;;;;;;17.23;3.40;;;;;;;11.26;94.17;101150.00;4972943;28;20054;-73
2022/11/02 06:34:48;;;;;;;23.67;4.35;;;;;;;11.29;94.29;101160.53;4987699;28;20117;-73
2022/11/02 06:37:14;;;;;;;21.85;3.70;;;;;;;11.33;94.17;101161.91;4988397;28;20515;-73
2022/11/02 06:39:39;;;;;;;19.90;3.60;;;;;;;11.49;94.11;101167.50;4988734;28;20553;-74
2022/11/02 06:42:05;;;;;;;32.28;3.72;;;;;;;11.51;93.86;101165.47;4988276;28;20030;-73
2022/11/02 06:44:30;;;;;;;21.27;3.22;;;;;;;11.60;93.50;101169.94;4962887;28;20422;-73
2022/11/02 06:46:55;;;;;;;16.50;3.72;;;;;;;11.51;94.15;101170.88;4963998;28;20038;-73
2022/11/02 06:49:21;;;;;;;17.65;2.90;;;;;;;11.60;93.97;101169.94;4958349;28;20081;-74
2022/11/02 06:51:50;;;;;;;20.42;3.33;;;;;;;11.56;94.00;101173.13;4964547;28;20014;-73
2022/11/02 06:54:15;;;;;;;18.23;3.35;;;;;;;11.55;94.29;101166.00;4962371;28;20030;-74
2022/11/02 06:56:40;;;;;;;25.55;4.45;;;;;;;11.56;94.56;101174.00;4970961;28;20073;-73
2022/11/02 06:59:06;;;;;;;21.27;3.05;;;;;;;11.61;94.27;101168.94;4979001;28;20027;-73
2022/11/02 07:01:31;;;;;;;25.70;3.83;;;;;;;11.74;93.68;101175.81;4994517;28;20026;-72
2022/11/02 07:03:56;;;;;;;16.02;3.88;;;;;;;11.56;94.03;101174.00;4963918;28;20037;-73
2022/11/02 07:06:22;;;;;;;19.48;3.50;;;;;;;11.75;93.77;101177.53;4958077;28;20061;-75
2022/11/02 07:08:47;;;;;;;17.95;3.20;;;;;;;11.83;93.62;101183.03;4976989;28;20018;-75
2022/11/02 07:11:14;;;;;;;25.70;3.58;;;;;;;11.82;92.83;101184.06;4965811;28;20122;-74
2022/11/02 07:13:40;;;;;;;22.98;3.88;;;;;;;11.77;93.60;101186.34;4960656;28;20414;-74
2022/11/02 07:16:06;;;;;;;23.42;4.70;;;;;;;11.71;93.72;101171.53;4965880;28;20118;-74
2022/11/02 07:18:31;;;;;;;19.02;3.28;;;;;;;11.85;93.43;101178.28;4975160;28;20496;-75
2022/11/02 07:21:01;;;;;;;21.63;4.25;;;;;;;11.62;94.16;101167.94;4985611;28;20030;-75
2022/11/02 07:23:27;;;;;;;22.40;3.40;;;;;;;11.80;93.46;101180.59;4962320;28;20026;-75
2022/11/02 07:25:52;;;;;;;16.73;3.22;;;;;;;11.94;92.81;101177.34;4971143;28;20025;-75
2022/11/02 07:28:19;;;;;;;30.52;4.43;;;;;;;11.85;92.39;101181.00;4988029;28;20242;-75
2022/11/02 07:30:45;;;;;;;21.08;3.22;;;;;;;11.91;92.77;101193.94;4983666;28;20122;-74
2022/11/02 07:33:10;;;;;;;15.05;3.15;;;;;;;12.06;91.62;101189.66;4953144;28;20043;-74
2022/11/02 07:35:36;;;;;;;28.95;4.25;;;;;;;12.06;91.23;101184.22;4969443;28;20084;-74
2022/11/02 07:38:06;;;;;;;22.00;3.30;;;;;;;12.18;91.25;101191.03;4959336;28;20078;-74
2022/11/02 07:40:34;;;;;;;17.83;3.47;;;;;;;12.20;90.50;101183.63;4965546;28;20034;-75
2022/11/02 07:43:00;;;;;;;20.40;2.88;;;;;;;12.29;90.58;101186.38;4972115;28;20410;-74
2022/11/02 07:45:28;;;;;;;23.33;3.78;;;;;;;12.41;90.20;101185.06;4971963;28;20035;-74
2022/11/02 07:47:54;;;;;;;18.60;3.03;;;;;;;12.43;89.87;101193.91;4987793;28;20065;-74
2022/11/02 07:50:22;;;;;;;29.05;5.20;;;;;;;12.35;90.25;101185.72;4964310;28;20041;-76
2022/11/02 07:52:54;;;;;;;17.90;3.08;;;;;;;12.56;88.91;101185.28;4957869;28;20030;-75
2022/11/02 07:55:25;;;;;;;27.33;4.10;;;;;;;12.69;88.16;101194.69;4973547;28;20026;-76
2022/11/02 07:57:58;;;;;;;16.05;3.00;;;;;;;12.67;88.45;101191.28;4967354;28;20030;-75
2022/11/02 08:00:26;;;;;;;18.38;4.22;;;;;;;12.80;87.76;101192.69;4980050;28;20158;-75
2022/11/02 08:02:55;;;;;;;20.88;3.28;;;;;;;12.73;87.87;101200.66;4981203;28;20100;-74
2022/11/02 08:05:21;;;;;;;20.13;3.97;;;;;;;12.62;87.52;101193.66;4981500;28;20038;-74
2022/11/02 08:07:47;;;;;;;21.67;3.65;;;;;;;12.65;86.97;101193.34;4972440;28;20035;-74
2022/11/02 08:10:12;;;;;;;22.38;3.45;;;;;;;12.57;87.55;101201.44;4980579;28;20076;-74
2022/11/02 08:12:38;;;;;;;25.13;3.75;;;;;;;12.71;87.07;101192.69;4969488;28;20030;-74
2022/11/02 08:15:04;;;;;;;29.30;4.18;;;;;;;12.75;87.47;101199.47;4976045;28;20519;-74
2022/11/02 08:17:29;;;;;;;21.08;4.65;;;;;;;12.86;86.35;101202.91;4981171;28;20034;-75
2022/11/02 08:19:54;;;;;;;20.83;3.28;;;;;;;12.83;86.08;101200.50;4967692;28;20084;-75
2022/11/02 08:22:20;;;;;;;15.70;2.92;;;;;;;12.88;85.49;101200.88;4981981;28;20080;-75
2022/11/02 08:24:45;;;;;;;22.88;3.63;;;;;;;12.94;85.57;101202.94;4967609;28;20069;-75
2022/11/02 08:27:11;;;;;;;23.70;4.97;;;;;;;12.94;84.60;101219.22;4981864;28;20534;-75
2022/11/02 08:29:36;;;;;;;26.10;3.38;;;;;;;12.92;85.59;101202.25;4971952;28;20407;-75
2022/11/02 08:32:02;;;;;;;20.98;3.40;;;;;;;12.93;84.94;101218.38;4973214;28;20119;-75
2022/11/02 08:34:27;;;;;;;20.10;3.50;;;;;;;12.98;84.90;101216.03;4995935;28;20030;-74
2022/11/02 08:36:53;;;;;;;27.27;3.53;;;;;;;13.06;84.22;101212.47;4984938;28;20163;-74
2022/11/02 08:39:18;;;;;;;23.55;3.75;;;;;;;13.05;83.81;101221.66;4975627;28;20037;-74
2022/11/02 08:41:43;;;;;;;18.90;3.45;;;;;;;13.16;83.80;101224.03;4969809;28;20026;-74
2022/11/02 08:44:09;;;;;;;21.67;4.28;;;;;;;13.14;83.41;101236.97;4986329;28;20037;-74
2022/11/02 08:46:34;;;;;;;23.98;3.55;;;;;;;12.97;83.14;101227.03;4985041;28;20045;-75
2022/11/02 08:49:00;;;;;;;17.55;2.90;;;;;;;13.07;83.71;101229.63;4984347;28;20030;-74
2022/11/02 08:51:25;;;;;;;27.73;3.53;;;;;;;13.17;82.93;101214.91;4984962;28;20034;-74
2022/11/02 08:53:50;;;;;;;18.83;3.30;;;;;;;13.29;82.32;101224.44;4985510;28;20037;-75
2022/11/02 08:56:16;;;;;;;19.65;3.08;;;;;;;13.52;81.89;101212.91;4974162;28;20034;-75
2022/11/02 08:58:41;;;;;;;17.15;3.00;;;;;;;13.46;81.55;101216.31;4978584;28;20030;-75
2022/11/02 09:01:06;;;;;;;25.73;4.65;;;;;;;13.34;82.33;101247.56;4970836;28;20038;-75
2022/11/02 09:03:31;;;;;;;17.90;3.22;;;;;;;13.38;82.23;101227.19;4974549;28;20038;-75
2022/11/02 09:05:59;;;;;;;22.90;3.38;;;;;;;13.34;82.38;101236.69;4981086;28;20045;-75
2022/11/02 09:08:26;;;;;;;20.95;3.53;;;;;;;13.21;82.04;101262.50;4968552;28;20018;-75
2022/11/02 09:10:52;;;;;;;18.52;3.13;;;;;;;13.37;81.29;101269.00;4986006;28;20018;-76
2022/11/02 09:13:23;;;;;;;23.63;4.28;;;;;;;13.28;81.45;101247.22;4985231;28;20040;-74
2022/11/02 09:15:52;;;;;;;24.30;3.33;;;;;;;13.44;80.71;101231.97;4970832;28;20026;-77
2022/11/02 09:18:18;;;;;;;22.92;3.15;;;;;;;13.69;80.68;101243.69;4982835;28;20032;-76
2022/11/02 09:20:45;;;;;;;24.88;3.55;;;;;;;13.27;81.17;101242.78;4970851;28;20399;-75
2022/11/02 09:23:11;;;;;;;26.27;4.07;;;;;;;13.15;81.77;101259.56;4983855;28;20041;-76
2022/11/02 09:25:36;;;;;;;25.17;4.30;;;;;;;13.29;81.91;101273.38;4969673;28;20109;-76
2022/11/02 09:28:01;;;;;;;17.13;3.25;;;;;;;13.50;80.88;101253.06;4979234;28;20034;-76
2022/11/02 09:30:30;;;;;;;20.92;3.67;;;;;;;13.72;79.88;101273.31;4973525;28;20027;-76
2022/11/02 09:33:00;;;;;;;12.98;2.97;;;;;;;13.52;80.61;101259.16;4985975;28;20033;-76
2022/11/02 09:35:28;;;;;;;41.83;4.20;;;;;;;13.39;80.75;101250.66;4984753;28;20058;-76
2022/11/02 09:37:54;;;;;;;17.35;3.17;;;;;;;13.40;80.60;101257.78;4967565;28;20026;-76
2022/11/02 09:40:22;;;;;;;17.45;3.45;;;;;;;13.36;80.46;101272.72;4964760;28;20030;-75
2022/11/02 09:43:07;;;;;;;23.90;3.92;;;;;;;13.37;80.62;101269.00;4984187;28;20022;-74
2022/11/02 09:45:39;;;;;;;25.65;3.22;;;;;;;13.62;79.62;101278.88;4983261;28;20022;-76
2022/11/02 09:48:14;;;;;;;19.58;4.50;;;;;;;13.46;80.01;101262.56;4980435;28;20023;-76
2022/11/02 09:50:46;;;;;;;19.40;4.05;;;;;;;13.43;80.10;101271.03;4972135;28;20498;-76
2022/11/02 09:53:18;;;;;;;21.95;3.28;;;;;;;13.33;79.00;101273.06;4980136;28;20026;-75
2022/11/02 09:55:51;;;;;;;11.90;2.15;;;;;;;13.40;79.78;101274.09;4969790;28;20025;-76
2022/11/02 09:58:21;;;;;;;20.20;3.58;;;;;;;13.37;79.63;101274.44;4979696;28;20042;-76
2022/11/02 10:00:50;;;;;;;15.33;2.60;;;;;;;13.28;80.38;101281.72;4966101;28;20015;-76
2022/11/02 10:03:46;;;;;;;19.92;3.28;;;;;;;13.38;79.93;101266.13;4983502;28;20305;-76
2022/11/02 10:06:18;;;;;;;16.35;3.08;;;;;;;13.33;79.67;101278.50;4981837;28;20038;-77
2022/11/02 10:09:11;;;;;;;16.05;2.50;;;;;;;13.28;79.62;101282.56;4966341;28;20085;-75
2022/11/02 10:11:56;;;;;;;12.88;2.63;;;;;;;13.42;79.24;101282.94;4971946;28;20030;-75
2022/11/02 10:14:30;;;;;;;20.73;3.08;;;;;;;13.44;79.80;101268.16;4983290;28;20030;-75
2022/11/02 10:17:10;;;;;;;19.20;3.80;;;;;;;13.34;79.78;101281.06;4982332;28;20026;-75
2022/11/02 10:19:39;;;;;;;22.08;4.13;;;;;;;13.17;81.50;101301.03;4972731;28;20054;-75
2022/11/02 10:22:10;;;;;;;23.40;3.10;;;;;;;12.80;86.71;101336.72;4984480;28;20026;-79
2022/11/02 10:24:42;;;;;;;36.05;3.95;;;;;;;12.12;92.39;101319.25;4985950;28;20034;-76
2022/11/02 10:27:25;;;;;;;30.55;3.70;;;;;;;11.44;99.54;101321.66;4985970;28;20026;-73
2022/11/02 10:29:59;;;;;;;22.25;4.30;;;;;;;11.34;100.00;101331.69;4967340;28;20105;-73
2022/11/02 10:32:24;;;;;;;19.73;3.40;;;;;;;11.39;100.00;101296.84;4980981;28;20030;-71
2022/11/02 10:34:50;;;;;;;19.02;3.35;;;;;;;11.60;100.00;101313.69;4983360;28;20026;-73
2022/11/02 10:37:43;;;;;;;17.08;3.72;;;;;;;11.56;100.00;101298.75;4968619;28;20039;-74
2022/11/02 10:40:44;;;;;;;19.10;4.35;;;;;;;11.67;100.00;101317.50;4964214;28;20046;-74
2022/11/02 10:43:24;;;;;;;20.10;3.92;;;;;;;11.72;100.00;101333.28;4932560;28;20034;-75
2022/11/02 10:46:14;;;;;;;19.00;4.80;;;;;;;11.58;100.00;101350.94;4986206;28;20038;-75
2022/11/02 10:48:50;;;;;;;22.13;4.60;;;;;;;11.85;98.51;101325.66;4985699;28;20022;-75
2022/11/02 10:51:16;;;;;;;27.35;5.57;;;;;;;12.26;98.47;101333.28;4990414;28;20430;-76
2022/11/02 10:53:48;;;;;;;30.02;6.47;;;;;;;12.43;97.95;101343.25;4981922;28;20031;-75
2022/11/02 10:56:21;;;;;;;40.38;9.32;;;;;;;12.60;97.23;101342.38;4982698;28;20048;-78
2022/11/02 10:58:58;;;;;;;14.68;3.20;;;;;;;12.73;93.39;101342.78;4984108;28;20463;-76
2022/11/02 11:01:25;;;;;;;20.33;4.13;;;;;;;12.50;91.90;101341.63;4983654;28;20052;-76
2022/11/02 11:03:57;;;;;;;24.05;4.82;;;;;;;12.57;92.81;101348.09;4960703;28;20129;-78
2022/11/02 11:06:25;;;;;;;20.10;4.15;;;;;;;12.60;93.33;101336.94;4969974;28;20113;-76
2022/11/02 11:08:52;;;;;;;30.00;4.15;;;;;;;12.53;89.75;101346.75;4984997;28;20383;-76
2022/11/02 11:11:24;;;;;;;18.45;3.17;;;;;;;12.52;89.79;101347.75;4975637;28;20029;-76
2022/11/02 11:14:16;;;;;;;19.55;3.58;;;;;;;12.66;90.04;101346.31;4983450;28;20019;-76
2022/11/02 11:16:46;;;;;;;;;;;;;;;12.75;90.22;101345.34;4971641;28;20049;-77
2022/11/02 11:19:33;;;;;;;21.98;3.70;;;;;;;12.81;89.01;101352.84;4976042;28;19932;-76
2022/11/02 11:21:59;;;;;;;14.82;3.45;;;;;;;12.87;88.35;101354.09;4967113;28;20022;-77
2022/11/02 11:24:26;;;;;;;16.13;4.32;;;;;;;13.01;87.89;101356.19;4978304;28;20026;-75
2022/11/02 11:27:08;;;;;;;19.45;3.42;;;;;;;12.89;86.75;101357.47;4984694;28;20018;-75
2022/11/02 11:29:36;;;;;;;;;;;;;;;12.90;85.98;101361.91;4967470;28;20033;-75
2022/11/02 11:32:03;;;;;;;18.48;4.38;;;;;;;12.89;86.44;101352.03;4971639;28;19992;-76
2022/11/02 11:34:32;;;;;;;21.70;5.57;;;;;;;12.75;88.70;101376.09;4988972;28;20304;-75
2022/11/02 11:37:11;;;;;;;23.92;4.65;;;;;;;12.69;86.74;101368.56;4975390;28;20101;-74
2022/11/02 11:39:39;;;;;;;22.15;4.85;;;;;;;12.76;86.90;101369.63;4986822;28;20395;-76
2022/11/02 11:42:20;;;;;;;14.18;3.40;;;;;;;12.67;89.22;101392.34;4981378;28;20031;-78
2022/11/02 11:44:57;;;;;;;17.92;3.25;;;;;;;12.60;91.06;101391.28;4971005;28;20023;-76
2022/11/02 11:47:30;;;;;;;20.73;4.28;;;;;;;12.69;90.48;101379.44;4982443;28;20026;-78
2022/11/02 11:49:59;;;;;;;17.60;3.00;;;;;;;12.85;91.89;101386.84;4967794;28;20027;-77
2022/11/02 11:52:27;;;;;;;23.98;3.50;;;;;;;12.93;87.26;101386.06;4966988;28;20511;-74
2022/11/02 11:54:55;;;;;;;10.82;3.38;;;;;;;12.82;87.72;101391.75;4982608;28;20489;-74
2022/11/02 11:57:28;;;;;;;14.10;2.72;;;;;;;12.75;88.68;101378.81;4968052;28;20078;-78
2022/11/02 11:59:57;;;;;;;11.23;2.50;;;;;;;12.79;87.45;101389.38;4974198;28;20026;-78
2022/11/02 12:02:30;;;;;;;7.15;2.55;;;;;;;12.59;85.30;101395.00;4967308;28;20026;-75
2022/11/02 12:05:09;;;;;;;16.10;3.85;;;;;;;12.58;86.30;101439.44;4976247;28;20130;-76
2022/11/02 12:07:51;;;;;;;17.10;4.30;;;;;;;12.56;87.33;101417.03;4986556;28;20053;-74